Time,TemperatureF,DewpointF,PressureIn,WindDirection,WindDirectionDegrees,WindSpeedMPH,WindSpeedGustMPH,Humidity,HourlyPrecipIn,Conditions,Clouds,dailyrainin,SoftwareType,DateUTC
2013-01-27 00:03:00,45.9,41.0,30.04,SE,138,3.0,5.0,83,0.00,,---,0.00,VWS V14.01,2013-01-27 08:03:00,
2013-01-27 00:09:00,45.9,41.0,30.04,SE,129,1.0,5.0,83,0.00,,---,0.00,VWS V14.01,2013-01-27 08:09:00,
2013-01-27 00:15:00,45.9,41.0,30.04,SE,126,2.0,3.0,83,0.00,,---,0.00,VWS V14.01,2013-01-27 08:15:00,
2013-01-27 00:21:00,45.9,41.0,30.04,SE,124,0.0,4.0,83,0.00,,---,0.00,VWS V14.01,2013-01-27 08:21:00,
2013-01-27 00:27:00,45.9,41.0,30.04,SE,131,0.0,0.0,83,0.00,,---,0.00,VWS V14.01,2013-01-27 08:27:00,
2013-01-27 00:33:00,45.8,40.9,30.04,SE,124,3.0,3.0,83,0.00,,---,0.00,VWS V14.01,2013-01-27 08:33:00,
2013-01-27 00:39:00,45.8,40.9,30.04,ESE,123,0.0,0.0,83,0.00,,---,0.00,VWS V14.01,2013-01-27 08:39:00,
2013-01-27 00:45:00,45.8,40.9,30.05,East,101,0.0,0.0,83,0.00,,---,0.00,VWS V14.01,2013-01-27 08:45:00,
2013-01-27 00:51:00,45.8,40.9,30.05,East,101,0.0,0.0,83,0.00,,---,0.00,VWS V14.01,2013-01-27 08:51:00,
2013-01-27 00:57:00,45.8,40.9,30.05,East,101,3.0,3.0,83,0.00,,---,0.00,VWS V14.01,2013-01-27 08:57:00,
2013-01-27 01:03:00,45.8,40.9,30.05,East,100,3.0,4.0,83,0.00,,---,0.00,VWS V14.01,2013-01-27 09:03:00,
2013-01-27 01:08:00,45.8,41.2,30.04,ESE,104,5.0,5.0,84,0.00,,---,0.00,VWS V14.01,2013-01-27 09:08:00,
2013-01-27 01:13:00,45.7,41.2,30.04,ENE,78,3.0,5.0,84,0.00,,---,0.00,VWS V14.01,2013-01-27 09:13:00,
2013-01-27 01:19:00,45.6,41.0,30.04,ENE,77,4.0,8.0,84,0.00,,---,0.00,VWS V14.01,2013-01-27 09:19:00,
2013-01-27 01:24:00,45.6,41.0,30.05,ENE,74,0.0,3.0,84,0.00,,---,0.00,VWS V14.01,2013-01-27 09:24:00,
2013-01-27 01:30:00,45.5,41.0,30.05,East,88,4.0,6.0,84,0.00,,---,0.00,VWS V14.01,2013-01-27 09:30:00,
2013-01-27 01:35:00,45.4,40.9,30.05,East,83,0.0,0.0,84,0.00,,---,0.00,VWS V14.01,2013-01-27 09:35:00,
2013-01-27 01:40:00,45.4,40.9,30.05,East,88,0.0,0.0,84,0.00,,---,0.00,VWS V14.01,2013-01-27 09:40:00,
2013-01-27 01:45:00,45.3,40.8,30.05,ESE,123,0.0,3.0,84,0.00,,---,0.00,VWS V14.01,2013-01-27 09:45:00,
2013-01-27 01:50:00,45.3,40.8,30.06,SE,128,0.0,0.0,84,0.00,,---,0.00,VWS V14.01,2013-01-27 09:50:00,
2013-01-27 01:55:00,45.2,40.7,30.06,SE,128,0.0,2.0,84,0.00,,---,0.00,VWS V14.01,2013-01-27 09:55:00,
2013-01-27 02:01:00,45.0,40.5,30.06,SE,128,0.0,0.0,84,0.00,,---,0.00,VWS V14.01,2013-01-27 10:01:00,
2013-01-27 02:06:00,45.0,40.5,30.06,SE,128,0.0,0.0,84,0.00,,---,0.00,VWS V14.01,2013-01-27 10:06:00,
2013-01-27 02:12:00,44.8,40.6,30.06,SE,128,0.0,2.0,85,0.00,,---,0.00,VWS V14.01,2013-01-27 10:12:00,
2013-01-27 02:18:00,44.6,40.4,30.06,SE,128,0.0,0.0,85,0.00,,---,0.00,VWS V14.01,2013-01-27 10:18:00,
2013-01-27 02:23:00,44.3,40.1,30.06,SE,128,0.0,0.0,85,0.00,,---,0.00,VWS V14.01,2013-01-27 10:23:00,
2013-01-27 02:28:00,44.2,40.3,30.06,SE,128,0.0,0.0,86,0.00,,---,0.00,VWS V14.01,2013-01-27 10:28:00,
2013-01-27 02:34:00,44.0,40.1,30.07,SE,128,0.0,0.0,86,0.00,,---,0.00,VWS V14.01,2013-01-27 10:34:00,
2013-01-27 02:39:00,43.8,39.9,30.07,SE,128,0.0,0.0,86,0.00,,---,0.00,VWS V14.01,2013-01-27 10:39:00,
2013-01-27 02:44:00,43.6,39.7,30.07,SE,128,0.0,0.0,86,0.00,,---,0.00,VWS V14.01,2013-01-27 10:44:00,
2013-01-27 02:49:00,43.3,39.4,30.07,SE,128,0.0,0.0,86,0.00,,---,0.00,VWS V14.01,2013-01-27 10:49:00,
2013-01-27 02:54:00,43.1,39.5,30.07,SE,128,0.0,0.0,87,0.00,,---,0.00,VWS V14.01,2013-01-27 10:54:00,
2013-01-27 02:59:00,42.9,39.3,30.07,SE,128,0.0,0.0,87,0.00,,---,0.00,VWS V14.01,2013-01-27 10:59:00,
2013-01-27 03:04:00,42.8,39.5,30.07,SE,128,0.0,0.0,88,0.00,,---,0.00,VWS V14.01,2013-01-27 11:04:00,
2013-01-27 03:10:00,42.7,39.7,30.07,SE,128,0.0,0.0,89,0.00,,---,0.00,VWS V14.01,2013-01-27 11:10:00,
2013-01-27 03:15:00,42.6,39.6,30.07,SE,128,0.0,0.0,89,0.00,,---,0.00,VWS V14.01,2013-01-27 11:15:00,
2013-01-27 03:20:00,42.5,39.5,30.07,SE,128,0.0,0.0,89,0.00,,---,0.00,VWS V14.01,2013-01-27 11:20:00,
2013-01-27 03:25:00,42.3,39.3,30.07,SE,128,0.0,0.0,89,0.00,,---,0.00,VWS V14.01,2013-01-27 11:25:00,
2013-01-27 03:30:00,42.2,39.5,30.07,SE,128,0.0,1.0,90,0.00,,---,0.00,VWS V14.01,2013-01-27 11:30:00,
2013-01-27 03:35:00,42.3,39.9,30.07,SE,128,2.0,2.0,91,0.00,,---,0.00,VWS V14.01,2013-01-27 11:35:00,
2013-01-27 03:40:00,42.1,39.4,30.07,SE,128,0.0,0.0,90,0.00,,---,0.00,VWS V14.01,2013-01-27 11:40:00,
2013-01-27 03:45:00,41.9,38.9,30.07,SE,128,1.0,2.0,89,0.00,,---,0.00,VWS V14.01,2013-01-27 11:45:00,
2013-01-27 03:51:00,41.8,39.1,30.07,SE,128,0.0,0.0,90,0.00,,---,0.00,VWS V14.01,2013-01-27 11:51:00,
2013-01-27 03:56:00,41.6,38.9,30.07,SE,128,0.0,0.0,90,0.00,,---,0.00,VWS V14.01,2013-01-27 11:56:00,
2013-01-27 04:01:00,41.5,38.8,30.07,SE,128,0.0,0.0,90,0.00,,---,0.00,VWS V14.01,2013-01-27 12:01:00,
2013-01-27 04:06:00,41.4,38.7,30.08,SE,128,0.0,0.0,90,0.00,,---,0.00,VWS V14.01,2013-01-27 12:06:00,
2013-01-27 04:12:00,41.3,38.6,30.07,SE,128,0.0,0.0,90,0.00,,---,0.00,VWS V14.01,2013-01-27 12:12:00,
2013-01-27 04:17:00,41.2,38.5,30.08,SE,128,0.0,0.0,90,0.00,,---,0.00,VWS V14.01,2013-01-27 12:17:00,
2013-01-27 04:22:00,41.1,38.4,30.08,SE,128,0.0,0.0,90,0.00,,---,0.00,VWS V14.01,2013-01-27 12:22:00,
2013-01-27 04:27:00,41.0,38.3,30.08,SE,128,0.0,0.0,90,0.00,,---,0.00,VWS V14.01,2013-01-27 12:27:00,
2013-01-27 04:32:00,40.9,38.2,30.08,SE,128,0.0,0.0,90,0.00,,---,0.00,VWS V14.01,2013-01-27 12:32:00,
2013-01-27 04:38:00,40.8,38.1,30.08,SE,128,0.0,0.0,90,0.00,,---,0.00,VWS V14.01,2013-01-27 12:38:00,
2013-01-27 04:43:00,40.7,38.0,30.08,SE,128,0.0,0.0,90,0.00,,---,0.00,VWS V14.01,2013-01-27 12:43:00,
2013-01-27 04:48:00,40.6,37.9,30.08,SE,128,0.0,0.0,90,0.00,,---,0.00,VWS V14.01,2013-01-27 12:48:00,
2013-01-27 04:53:00,40.5,37.8,30.08,SE,128,0.0,0.0,90,0.00,,---,0.00,VWS V14.01,2013-01-27 12:53:00,
2013-01-27 04:58:00,40.5,38.1,30.08,SE,128,0.0,0.0,91,0.00,,---,0.00,VWS V14.01,2013-01-27 12:58:00,
2013-01-27 05:04:00,40.4,38.0,30.08,SE,128,0.0,0.0,91,0.00,,---,0.00,VWS V14.01,2013-01-27 13:04:00,
2013-01-27 05:09:00,40.2,37.8,30.08,SE,127,0.0,0.0,91,0.00,,---,0.00,VWS V14.01,2013-01-27 13:09:00,
2013-01-27 05:14:00,40.1,37.7,30.08,SE,128,0.0,0.0,91,0.00,,---,0.00,VWS V14.01,2013-01-27 13:14:00,
2013-01-27 05:19:00,40.1,37.7,30.08,SE,128,0.0,0.0,91,0.00,,---,0.00,VWS V14.01,2013-01-27 13:19:00,
2013-01-27 05:24:00,40.0,37.6,30.08,SE,128,0.0,0.0,91,0.00,,---,0.00,VWS V14.01,2013-01-27 13:24:00,
2013-01-27 05:30:00,39.9,37.5,30.08,SE,128,0.0,0.0,91,0.00,,---,0.00,VWS V14.01,2013-01-27 13:30:00,
2013-01-27 05:35:00,39.8,37.4,30.09,SE,128,0.0,0.0,91,0.00,,---,0.00,VWS V14.01,2013-01-27 13:35:00,
2013-01-27 05:40:00,39.8,37.4,30.09,SE,128,0.0,0.0,91,0.00,,---,0.00,VWS V14.01,2013-01-27 13:40:00,
2013-01-27 05:45:00,39.7,37.3,30.09,SE,128,0.0,0.0,91,0.00,,---,0.00,VWS V14.01,2013-01-27 13:45:00,
2013-01-27 05:50:00,39.7,37.3,30.09,SE,128,0.0,0.0,91,0.00,,---,0.00,VWS V14.01,2013-01-27 13:50:00,
2013-01-27 05:56:00,39.6,37.2,30.09,SE,128,0.0,0.0,91,0.00,,---,0.00,VWS V14.01,2013-01-27 13:56:00,
2013-01-27 06:01:00,39.5,37.1,30.09,SE,128,0.0,0.0,91,0.00,,---,0.00,VWS V14.01,2013-01-27 14:01:00,
2013-01-27 06:07:00,39.4,37.3,30.09,SE,128,0.0,0.0,92,0.00,,---,0.00,VWS V14.01,2013-01-27 14:07:00,
2013-01-27 06:12:00,39.3,37.2,30.10,SE,128,0.0,0.0,92,0.00,,---,0.00,VWS V14.01,2013-01-27 14:12:00,
2013-01-27 06:17:00,39.3,36.9,30.10,SE,127,0.0,0.0,91,0.00,,---,0.00,VWS V14.01,2013-01-27 14:17:00,
2013-01-27 06:22:00,39.2,37.1,30.10,SE,128,0.0,0.0,92,0.00,,---,0.00,VWS V14.01,2013-01-27 14:22:00,
2013-01-27 06:28:00,39.1,37.0,30.10,SE,128,0.0,0.0,92,0.00,,---,0.00,VWS V14.01,2013-01-27 14:28:00,
2013-01-27 06:34:00,39.0,36.9,30.10,SE,128,0.0,0.0,92,0.00,,---,0.00,VWS V14.01,2013-01-27 14:34:00,
2013-01-27 06:40:00,38.9,36.8,30.10,SE,128,0.0,0.0,92,0.00,,---,0.00,VWS V14.01,2013-01-27 14:40:00,
2013-01-27 06:46:00,38.7,36.6,30.11,SE,127,0.0,0.0,92,0.00,,---,0.00,VWS V14.01,2013-01-27 14:46:00,
2013-01-27 06:51:00,38.6,36.2,30.11,SE,128,0.0,0.0,91,0.00,,---,0.00,VWS V14.01,2013-01-27 14:51:00,
2013-01-27 06:56:00,38.4,36.0,30.11,SE,128,0.0,0.0,91,0.00,,---,0.00,VWS V14.01,2013-01-27 14:56:00,
2013-01-27 07:02:00,38.3,36.2,30.11,SE,127,0.0,0.0,92,0.00,,---,0.00,VWS V14.01,2013-01-27 15:02:00,
2013-01-27 07:07:00,38.3,36.2,30.11,SE,126,2.0,4.0,92,0.00,,---,0.00,VWS V14.01,2013-01-27 15:07:00,
2013-01-27 07:12:00,38.4,36.3,30.11,SE,126,0.0,0.0,92,0.00,,---,0.00,VWS V14.01,2013-01-27 15:12:00,
2013-01-27 07:17:00,38.4,36.6,30.12,SE,126,3.0,3.0,93,0.00,,---,0.00,VWS V14.01,2013-01-27 15:17:00,
2013-01-27 07:22:00,38.4,36.3,30.12,SE,126,0.0,1.0,92,0.00,,---,0.00,VWS V14.01,2013-01-27 15:22:00,
2013-01-27 07:28:00,38.4,36.3,30.12,SE,126,0.0,0.0,92,0.00,,---,0.00,VWS V14.01,2013-01-27 15:28:00,
2013-01-27 07:33:00,38.3,36.2,30.12,SE,126,0.0,0.0,92,0.00,,---,0.00,VWS V14.01,2013-01-27 15:33:00,
2013-01-27 07:38:00,38.3,36.2,30.12,SE,126,0.0,0.0,92,0.00,,---,0.00,VWS V14.01,2013-01-27 15:38:00,
2013-01-27 07:43:00,38.3,36.2,30.12,SE,126,0.0,0.0,92,0.00,,---,0.00,VWS V14.01,2013-01-27 15:43:00,
2013-01-27 07:48:00,38.3,36.2,30.12,SE,126,0.0,0.0,92,0.00,,---,0.00,VWS V14.01,2013-01-27 15:48:00,
2013-01-27 07:53:00,38.3,36.5,30.12,SE,126,0.0,0.0,93,0.00,,---,0.00,VWS V14.01,2013-01-27 15:53:00,
2013-01-27 07:58:00,38.5,36.7,30.12,SE,126,0.0,0.0,93,0.00,,---,0.00,VWS V14.01,2013-01-27 15:58:00,
2013-01-27 08:03:00,38.7,36.8,30.13,SE,126,1.0,1.0,93,0.00,,---,0.00,VWS V14.01,2013-01-27 16:03:00,
2013-01-27 08:09:00,38.9,37.0,30.13,SE,126,0.0,0.0,93,0.00,,---,0.00,VWS V14.01,2013-01-27 16:09:00,
2013-01-27 08:14:00,39.1,37.2,30.14,SE,126,0.0,0.0,93,0.00,,---,0.00,VWS V14.01,2013-01-27 16:14:00,
2013-01-27 08:19:00,39.3,37.5,30.14,SE,126,0.0,0.0,93,0.00,,---,0.00,VWS V14.01,2013-01-27 16:19:00,
2013-01-27 08:24:00,39.6,37.8,30.14,SE,126,0.0,2.0,93,0.00,,---,0.00,VWS V14.01,2013-01-27 16:24:00,
2013-01-27 08:29:00,40.0,38.1,30.14,SE,126,0.0,0.0,93,0.00,,---,0.00,VWS V14.01,2013-01-27 16:29:00,
2013-01-27 08:34:00,40.8,38.7,30.14,ESE,117,2.0,2.0,92,0.00,,---,0.00,VWS V14.01,2013-01-27 16:34:00,
2013-01-27 08:40:00,41.5,38.8,30.14,SE,124,3.0,3.0,90,0.00,,---,0.00,VWS V14.01,2013-01-27 16:40:00,
2013-01-27 08:45:00,42.2,39.2,30.14,SE,124,0.0,0.0,89,0.00,,---,0.00,VWS V14.01,2013-01-27 16:45:00,
2013-01-27 08:51:00,42.8,39.2,30.14,SE,132,0.0,0.0,87,0.00,,---,0.00,VWS V14.01,2013-01-27 16:51:00,
2013-01-27 08:56:00,43.3,39.1,30.14,SE,132,0.0,0.0,85,0.00,,---,0.00,VWS V14.01,2013-01-27 16:56:00,
2013-01-27 09:02:00,43.6,39.1,30.15,SE,137,0.0,0.0,84,0.00,,---,0.00,VWS V14.01,2013-01-27 17:02:00,
2013-01-27 09:08:00,44.0,39.8,30.15,SE,137,0.0,0.0,85,0.00,,---,0.00,VWS V14.01,2013-01-27 17:08:00,
2013-01-27 09:13:00,44.7,40.5,30.15,SE,137,0.0,0.0,85,0.00,,---,0.00,VWS V14.01,2013-01-27 17:13:00,
2013-01-27 09:18:00,45.0,40.2,30.15,SE,138,0.0,0.0,83,0.00,,---,0.00,VWS V14.01,2013-01-27 17:18:00,
2013-01-27 09:23:00,45.1,40.2,30.15,South,169,0.0,3.0,83,0.00,,---,0.00,VWS V14.01,2013-01-27 17:23:00,
2013-01-27 09:28:00,45.0,40.5,30.15,South,188,0.0,0.0,84,0.00,,---,0.00,VWS V14.01,2013-01-27 17:28:00,
2013-01-27 09:34:00,45.0,40.5,30.15,South,188,0.0,0.0,84,0.00,,---,0.00,VWS V14.01,2013-01-27 17:34:00,
2013-01-27 09:39:00,45.4,41.2,30.16,South,188,0.0,0.0,85,0.00,,---,0.00,VWS V14.01,2013-01-27 17:39:00,
2013-01-27 09:44:00,45.9,41.3,30.16,WSW,240,0.0,0.0,84,0.00,,---,0.00,VWS V14.01,2013-01-27 17:44:00,
2013-01-27 09:49:00,46.3,41.1,30.16,WSW,238,0.0,0.0,82,0.00,,---,0.00,VWS V14.01,2013-01-27 17:49:00,
2013-01-27 09:54:00,46.5,41.3,30.16,WSW,238,0.0,0.0,82,0.00,,---,0.00,VWS V14.01,2013-01-27 17:54:00,
2013-01-27 09:59:00,47.0,41.8,30.16,WSW,238,0.0,0.0,82,0.00,,---,0.00,VWS V14.01,2013-01-27 17:59:00,
2013-01-27 10:04:00,47.7,41.8,30.16,WSW,240,0.0,0.0,80,0.00,,---,0.00,VWS V14.01,2013-01-27 18:04:00,
2013-01-27 10:09:00,48.1,42.2,30.17,West,275,0.0,2.0,80,0.00,,---,0.00,VWS V14.01,2013-01-27 18:09:00,
2013-01-27 10:14:00,48.4,42.2,30.17,West,261,0.0,4.0,79,0.00,,---,0.00,VWS V14.01,2013-01-27 18:14:00,
2013-01-27 10:20:00,48.5,42.0,30.17,West,269,0.0,0.0,78,0.00,,---,0.00,VWS V14.01,2013-01-27 18:20:00,
2013-01-27 10:26:00,48.7,41.8,30.17,NW,311,5.0,5.0,77,0.00,,---,0.00,VWS V14.01,2013-01-27 18:26:00,
2013-01-27 10:32:00,49.0,41.4,30.18,NW,313,1.0,5.0,75,0.00,,---,0.00,VWS V14.01,2013-01-27 18:32:00,
2013-01-27 10:37:00,48.9,41.0,30.18,NW,323,0.0,6.0,74,0.00,,---,0.00,VWS V14.01,2013-01-27 18:37:00,
2013-01-27 10:43:00,48.6,41.0,30.18,NW,311,3.0,3.0,75,0.00,,---,0.00,VWS V14.01,2013-01-27 18:43:00,
2013-01-27 10:48:00,48.7,40.8,30.18,NW,311,2.0,4.0,74,0.00,,---,0.00,VWS V14.01,2013-01-27 18:48:00,
2013-01-27 10:54:00,49.0,40.7,30.18,NW,317,0.0,1.0,73,0.00,,---,0.00,VWS V14.01,2013-01-27 18:54:00,
2013-01-27 10:59:00,49.4,40.8,30.18,NW,316,3.0,4.0,72,0.00,,---,0.00,VWS V14.01,2013-01-27 18:59:00,
2013-01-27 11:04:00,49.4,40.0,30.18,NW,323,4.0,4.0,70,0.00,,---,0.00,VWS V14.01,2013-01-27 19:04:00,
2013-01-27 11:09:00,49.6,40.2,30.18,NW,318,0.0,0.0,70,0.00,,---,0.00,VWS V14.01,2013-01-27 19:09:00,
2013-01-27 11:15:00,49.7,40.3,30.18,West,281,0.0,4.0,70,0.00,,---,0.00,VWS V14.01,2013-01-27 19:15:00,
2013-01-27 11:20:00,50.0,40.2,30.18,WNW,295,0.0,0.0,69,0.00,,---,0.00,VWS V14.01,2013-01-27 19:20:00,
2013-01-27 11:26:00,50.4,41.0,30.18,WNW,295,0.0,0.0,70,0.00,,---,0.00,VWS V14.01,2013-01-27 19:26:00,
2013-01-27 11:31:00,50.6,40.1,30.18,NW,315,0.0,3.0,67,0.00,,---,0.00,VWS V14.01,2013-01-27 19:31:00,
2013-01-27 11:36:00,50.4,40.2,30.18,NNW,332,0.0,0.0,68,0.00,,---,0.00,VWS V14.01,2013-01-27 19:36:00,
2013-01-27 11:41:00,50.4,40.2,30.17,NNW,332,0.0,0.0,68,0.00,,---,0.00,VWS V14.01,2013-01-27 19:41:00,
2013-01-27 11:46:00,50.3,40.2,30.17,NNW,333,0.0,0.0,68,0.00,,---,0.00,VWS V14.01,2013-01-27 19:46:00,
2013-01-27 11:52:00,50.6,40.1,30.17,NNW,336,0.0,3.0,67,0.00,,---,0.00,VWS V14.01,2013-01-27 19:52:00,
2013-01-27 11:57:00,51.0,40.4,30.17,NNW,343,4.0,5.0,67,0.00,,---,0.00,VWS V14.01,2013-01-27 19:57:00,
2013-01-27 12:02:00,51.2,40.2,30.17,NNW,343,0.0,0.0,66,0.00,,---,0.00,VWS V14.01,2013-01-27 20:02:00,
2013-01-27 12:07:00,51.3,39.5,30.17,North,350,0.0,0.0,64,0.00,,---,0.00,VWS V14.01,2013-01-27 20:07:00,
2013-01-27 12:12:00,51.3,40.3,30.17,North,350,0.0,0.0,66,0.00,,---,0.00,VWS V14.01,2013-01-27 20:12:00,
2013-01-27 12:17:00,51.5,40.5,30.16,NNW,331,4.0,4.0,66,0.00,,---,0.00,VWS V14.01,2013-01-27 20:17:00,
2013-01-27 12:22:00,51.8,40.0,30.16,NNW,331,0.0,0.0,64,0.00,,---,0.00,VWS V14.01,2013-01-27 20:22:00,
2013-01-27 12:27:00,52.1,40.7,30.16,NW,325,0.0,0.0,65,0.00,,---,0.00,VWS V14.01,2013-01-27 20:27:00,
2013-01-27 12:32:00,52.1,39.9,30.16,NW,323,0.0,0.0,63,0.00,,---,0.00,VWS V14.01,2013-01-27 20:32:00,
2013-01-27 12:37:00,52.2,40.4,30.16,NW,323,0.0,0.0,64,0.00,,---,0.00,VWS V14.01,2013-01-27 20:37:00,
2013-01-27 12:42:00,52.5,40.7,30.15,NW,317,2.0,8.0,64,0.00,,---,0.00,VWS V14.01,2013-01-27 20:42:00,
2013-01-27 12:47:00,52.7,40.9,30.15,NW,305,0.0,5.0,64,0.00,,---,0.00,VWS V14.01,2013-01-27 20:47:00,
2013-01-27 12:52:00,52.9,40.2,30.15,WNW,302,0.0,4.0,62,0.00,,---,0.00,VWS V14.01,2013-01-27 20:52:00,
2013-01-27 12:57:00,52.8,40.6,30.15,NW,320,0.0,0.0,63,0.00,,---,0.00,VWS V14.01,2013-01-27 20:57:00,
2013-01-27 13:03:00,53.0,40.8,30.15,NW,320,0.0,0.0,63,0.00,,---,0.00,VWS V14.01,2013-01-27 21:03:00,
2013-01-27 13:08:00,53.3,41.0,30.15,WNW,294,0.0,3.0,63,0.00,,---,0.00,VWS V14.01,2013-01-27 21:08:00,
2013-01-27 13:13:00,53.4,41.1,30.15,WNW,295,1.0,3.0,63,0.00,,---,0.00,VWS V14.01,2013-01-27 21:13:00,
2013-01-27 13:18:00,53.3,41.0,30.15,West,275,0.0,3.0,63,0.00,,---,0.00,VWS V14.01,2013-01-27 21:18:00,
2013-01-27 13:23:00,53.1,40.4,30.15,WSW,254,2.0,5.0,62,0.00,,---,0.00,VWS V14.01,2013-01-27 21:23:00,
2013-01-27 13:28:00,53.0,41.2,30.14,West,267,5.0,7.0,64,0.00,,---,0.00,VWS V14.01,2013-01-27 21:28:00,
2013-01-27 13:34:00,52.9,41.1,30.14,West,262,4.0,7.0,64,0.00,,---,0.00,VWS V14.01,2013-01-27 21:34:00,
2013-01-27 13:39:00,52.8,41.4,30.14,WSW,256,4.0,10.0,65,0.00,,---,0.00,VWS V14.01,2013-01-27 21:39:00,
2013-01-27 13:44:00,53.1,41.7,30.14,WNW,284,4.0,5.0,65,0.00,,---,0.00,VWS V14.01,2013-01-27 21:44:00,
2013-01-27 13:49:00,53.3,41.5,30.14,West,261,7.0,10.0,64,0.00,,---,0.00,VWS V14.01,2013-01-27 21:49:00,
2013-01-27 13:55:00,53.5,41.6,30.14,NW,311,0.0,10.0,64,0.00,,---,0.00,VWS V14.01,2013-01-27 21:55:00,
2013-01-27 14:00:00,53.6,40.9,30.14,WSW,254,3.0,6.0,62,0.00,,---,0.00,VWS V14.01,2013-01-27 22:00:00,
2013-01-27 14:05:00,53.6,40.5,30.14,NW,319,0.0,0.0,61,0.00,,---,0.00,VWS V14.01,2013-01-27 22:05:00,
2013-01-27 14:10:00,53.8,40.3,30.14,NW,306,0.0,4.0,60,0.00,,---,0.00,VWS V14.01,2013-01-27 22:10:00,
2013-01-27 14:15:00,54.0,40.0,30.14,NW,304,0.0,0.0,59,0.00,,---,0.00,VWS V14.01,2013-01-27 22:15:00,
2013-01-27 14:20:00,54.2,39.8,30.14,West,281,0.0,3.0,58,0.00,,---,0.00,VWS V14.01,2013-01-27 22:20:00,
2013-01-27 14:25:00,54.2,38.9,30.14,NNW,343,4.0,5.0,56,0.00,,---,0.00,VWS V14.01,2013-01-27 22:25:00,
2013-01-27 14:30:00,54.2,39.8,30.14,NNW,337,0.0,1.0,58,0.00,,---,0.00,VWS V14.01,2013-01-27 22:30:00,
2013-01-27 14:36:00,54.2,38.9,30.14,NW,316,1.0,4.0,56,0.00,,---,0.00,VWS V14.01,2013-01-27 22:36:00,
2013-01-27 14:41:00,54.1,38.3,30.14,NW,325,3.0,3.0,55,0.00,,---,0.00,VWS V14.01,2013-01-27 22:41:00,
2013-01-27 14:46:00,54.0,37.8,30.14,NW,318,0.0,3.0,54,0.00,,---,0.00,VWS V14.01,2013-01-27 22:46:00,
2013-01-27 14:52:00,54.2,38.9,30.14,NW,321,6.0,6.0,56,0.00,,---,0.00,VWS V14.01,2013-01-27 22:52:00,
2013-01-27 14:57:00,54.3,39.0,30.14,NW,324,0.0,7.0,56,0.00,,---,0.00,VWS V14.01,2013-01-27 22:57:00,
2013-01-27 15:03:00,54.4,39.5,30.14,NW,310,2.0,9.0,57,0.00,,---,0.00,VWS V14.01,2013-01-27 23:03:00,
2013-01-27 15:09:00,54.5,39.1,30.13,North,355,5.0,10.0,56,0.00,,---,0.00,VWS V14.01,2013-01-27 23:09:00,
2013-01-27 15:14:00,54.2,38.9,30.13,NW,325,0.0,10.0,56,0.00,,---,0.00,VWS V14.01,2013-01-27 23:14:00,
2013-01-27 15:19:00,54.3,39.4,30.13,NW,315,5.0,5.0,57,0.00,,---,0.00,VWS V14.01,2013-01-27 23:19:00,
2013-01-27 15:24:00,54.5,39.1,30.13,NNW,338,6.0,8.0,56,0.00,,---,0.00,VWS V14.01,2013-01-27 23:24:00,
2013-01-27 15:29:00,54.5,39.1,30.13,NNW,340,0.0,3.0,56,0.00,,---,0.00,VWS V14.01,2013-01-27 23:29:00,
2013-01-27 15:35:00,54.6,37.8,30.13,NW,306,2.0,4.0,53,0.00,,---,0.00,VWS V14.01,2013-01-27 23:35:00,
2013-01-27 15:40:00,54.8,38.0,30.13,WNW,300,0.0,4.0,53,0.00,,---,0.00,VWS V14.01,2013-01-27 23:40:00,
2013-01-27 15:45:00,55.0,37.7,30.13,NW,323,3.0,3.0,52,0.00,,---,0.00,VWS V14.01,2013-01-27 23:45:00,
2013-01-27 15:50:00,55.1,37.8,30.12,WNW,298,0.0,6.0,52,0.00,,---,0.00,VWS V14.01,2013-01-27 23:50:00,
2013-01-27 15:55:00,55.1,37.8,30.13,WNW,298,0.0,0.0,52,0.00,,---,0.00,VWS V14.01,2013-01-27 23:55:00,
2013-01-27 16:01:00,55.1,37.3,30.12,WNW,295,0.0,0.0,51,0.00,,---,0.00,VWS V14.01,2013-01-28 00:01:00,
2013-01-27 16:06:00,55.0,36.7,30.12,NW,323,0.0,0.0,50,0.00,,---,0.00,VWS V14.01,2013-01-28 00:06:00,
2013-01-27 16:11:00,54.8,34.4,30.12,NW,321,0.0,0.0,46,0.00,,---,0.00,VWS V14.01,2013-01-28 00:11:00,
2013-01-27 16:16:00,54.5,34.2,30.12,NW,306,0.0,5.0,46,0.00,,---,0.00,VWS V14.01,2013-01-28 00:16:00,
2013-01-27 16:22:00,54.1,33.8,30.12,NW,313,0.0,0.0,46,0.00,,---,0.00,VWS V14.01,2013-01-28 00:22:00,
2013-01-27 16:27:00,54.0,34.2,30.12,NW,317,4.0,4.0,47,0.00,,---,0.00,VWS V14.01,2013-01-28 00:27:00,
2013-01-27 16:32:00,53.8,34.6,30.12,NW,307,0.0,4.0,48,0.00,,---,0.00,VWS V14.01,2013-01-28 00:32:00,
2013-01-27 16:37:00,53.7,34.5,30.12,NW,304,0.0,3.0,48,0.00,,---,0.00,VWS V14.01,2013-01-28 00:37:00,
2013-01-27 16:42:00,53.5,34.3,30.12,WNW,291,0.0,3.0,48,0.00,,---,0.00,VWS V14.01,2013-01-28 00:42:00,
2013-01-27 16:47:00,53.3,34.7,30.12,NW,309,0.0,2.0,49,0.00,,---,0.00,VWS V14.01,2013-01-28 00:47:00,
2013-01-27 16:52:00,53.2,34.5,30.11,NW,311,0.0,3.0,49,0.00,,---,0.00,VWS V14.01,2013-01-28 00:52:00,
2013-01-27 16:57:00,53.1,35.0,30.11,NW,312,0.0,0.0,50,0.00,,---,0.00,VWS V14.01,2013-01-28 00:57:00,
2013-01-27 17:02:00,52.9,35.8,30.11,NW,311,0.0,0.0,52,0.00,,---,0.00,VWS V14.01,2013-01-28 01:02:00,
2013-01-27 17:08:00,52.7,35.6,30.11,NW,311,0.0,0.0,52,0.00,,---,0.00,VWS V14.01,2013-01-28 01:08:00,
2013-01-27 17:14:00,52.4,35.3,30.12,NW,311,0.0,0.0,52,0.00,,---,0.00,VWS V14.01,2013-01-28 01:14:00,
2013-01-27 17:20:00,52.1,35.5,30.12,NW,311,0.0,0.0,53,0.00,,---,0.00,VWS V14.01,2013-01-28 01:20:00,
2013-01-27 17:25:00,51.8,35.2,30.12,NW,311,0.0,0.0,53,0.00,,---,0.00,VWS V14.01,2013-01-28 01:25:00,
2013-01-27 17:31:00,51.4,35.8,30.12,NW,311,0.0,0.0,55,0.00,,---,0.00,VWS V14.01,2013-01-28 01:31:00,
2013-01-27 17:37:00,51.0,36.8,30.12,NW,311,1.0,2.0,58,0.00,,---,0.00,VWS V14.01,2013-01-28 01:37:00,
2013-01-27 17:42:00,50.6,36.4,30.12,NW,312,0.0,3.0,58,0.00,,---,0.00,VWS V14.01,2013-01-28 01:42:00,
2013-01-27 17:48:00,50.2,36.4,30.12,NW,311,0.0,0.0,59,0.00,,---,0.00,VWS V14.01,2013-01-28 01:48:00,
2013-01-27 17:53:00,49.9,36.2,30.12,NW,311,0.0,0.0,59,0.00,,---,0.00,VWS V14.01,2013-01-28 01:53:00,
2013-01-27 17:58:00,49.6,36.7,30.13,NW,311,0.0,0.0,61,0.00,,---,0.00,VWS V14.01,2013-01-28 01:58:00,
2013-01-27 18:04:00,49.2,36.8,30.13,NW,311,0.0,0.0,62,0.00,,---,0.00,VWS V14.01,2013-01-28 02:04:00,
2013-01-27 18:09:00,48.9,36.5,30.12,NW,311,0.0,0.0,62,0.00,,---,0.00,VWS V14.01,2013-01-28 02:09:00,
2013-01-27 18:15:00,48.5,36.5,30.13,NW,311,0.0,0.0,63,0.00,,---,0.00,VWS V14.01,2013-01-28 02:15:00,
2013-01-27 18:20:00,48.3,36.3,30.13,NW,311,0.0,4.0,63,0.00,,---,0.00,VWS V14.01,2013-01-28 02:20:00,
2013-01-27 18:25:00,48.0,36.0,30.13,NW,311,0.0,0.0,63,0.00,,---,0.00,VWS V14.01,2013-01-28 02:25:00,
2013-01-27 18:31:00,47.7,36.1,30.13,NW,311,0.0,0.0,64,0.00,,---,0.00,VWS V14.01,2013-01-28 02:31:00,
2013-01-27 18:36:00,47.4,35.8,30.13,NW,311,0.0,0.0,64,0.00,,---,0.00,VWS V14.01,2013-01-28 02:36:00,
2013-01-27 18:41:00,47.2,36.0,30.13,NW,311,0.0,0.0,65,0.00,,---,0.00,VWS V14.01,2013-01-28 02:41:00,
2013-01-27 18:46:00,46.9,35.8,30.13,NW,311,0.0,0.0,65,0.00,,---,0.00,VWS V14.01,2013-01-28 02:46:00,
2013-01-27 18:51:00,46.6,35.9,30.12,NW,312,0.0,0.0,66,0.00,,---,0.00,VWS V14.01,2013-01-28 02:51:00,
2013-01-27 18:57:00,46.3,36.0,30.12,NW,311,0.0,0.0,67,0.00,,---,0.00,VWS V14.01,2013-01-28 02:57:00,
2013-01-27 19:03:00,46.0,36.0,30.12,NW,311,0.0,0.0,68,0.00,,---,0.00,VWS V14.01,2013-01-28 03:03:00,
2013-01-27 19:08:00,45.7,36.1,30.13,NW,312,0.0,0.0,69,0.00,,---,0.00,VWS V14.01,2013-01-28 03:08:00,
2013-01-27 19:13:00,45.4,36.6,30.13,NW,312,0.0,0.0,71,0.00,,---,0.00,VWS V14.01,2013-01-28 03:13:00,
2013-01-27 19:19:00,45.0,35.8,30.13,NW,311,0.0,0.0,70,0.00,,---,0.00,VWS V14.01,2013-01-28 03:19:00,
2013-01-27 19:24:00,45.0,35.8,30.13,NW,311,0.0,0.0,70,0.00,,---,0.00,VWS V14.01,2013-01-28 03:24:00,
2013-01-27 19:29:00,44.9,35.4,30.13,NW,311,0.0,0.0,69,0.00,,---,0.00,VWS V14.01,2013-01-28 03:29:00,
2013-01-27 19:34:00,45.0,35.8,30.13,NW,312,0.0,0.0,70,0.00,,---,0.00,VWS V14.01,2013-01-28 03:34:00,
2013-01-27 19:39:00,44.9,36.4,30.13,NW,311,0.0,0.0,72,0.00,,---,0.00,VWS V14.01,2013-01-28 03:39:00,
2013-01-27 19:44:00,44.7,36.2,30.14,NW,311,0.0,0.0,72,0.00,,---,0.00,VWS V14.01,2013-01-28 03:44:00,
2013-01-27 19:50:00,44.5,36.4,30.13,NW,311,0.0,0.0,73,0.00,,---,0.00,VWS V14.01,2013-01-28 03:50:00,
2013-01-27 19:55:00,44.3,36.2,30.14,NW,312,0.0,0.0,73,0.00,,---,0.00,VWS V14.01,2013-01-28 03:55:00,
2013-01-27 20:01:00,44.1,36.0,30.13,NW,312,0.0,0.0,73,0.00,,---,0.00,VWS V14.01,2013-01-28 04:01:00,
2013-01-27 20:06:00,44.0,35.9,30.13,NW,311,0.0,0.0,73,0.00,,---,0.00,VWS V14.01,2013-01-28 04:06:00,
2013-01-27 20:12:00,43.8,36.1,30.13,NW,311,0.0,0.0,74,0.00,,---,0.00,VWS V14.01,2013-01-28 04:12:00,
2013-01-27 20:18:00,43.7,36.3,30.13,NW,311,0.0,0.0,75,0.00,,---,0.00,VWS V14.01,2013-01-28 04:18:00,
2013-01-27 20:23:00,43.6,36.5,30.13,NW,311,0.0,0.0,76,0.00,,---,0.00,VWS V14.01,2013-01-28 04:23:00,
2013-01-27 20:28:00,43.4,36.0,30.13,NW,311,0.0,0.0,75,0.00,,---,0.00,VWS V14.01,2013-01-28 04:28:00,
2013-01-27 20:33:00,43.2,36.2,30.14,NW,311,0.0,0.0,76,0.00,,---,0.00,VWS V14.01,2013-01-28 04:33:00,
2013-01-27 20:38:00,43.1,36.4,30.13,NW,311,0.0,0.0,77,0.00,,---,0.00,VWS V14.01,2013-01-28 04:38:00,
2013-01-27 20:44:00,42.8,35.8,30.13,NW,311,0.0,0.0,76,0.00,,---,0.00,VWS V14.01,2013-01-28 04:44:00,
2013-01-27 20:49:00,42.7,36.0,30.13,NW,311,0.0,0.0,77,0.00,,---,0.00,VWS V14.01,2013-01-28 04:49:00,
2013-01-27 20:55:00,42.6,35.9,30.13,NW,311,0.0,0.0,77,0.00,,---,0.00,VWS V14.01,2013-01-28 04:55:00,
2013-01-27 21:04:00,42.4,36.0,30.13,NW,311,0.0,0.0,78,0.00,,---,0.00,VWS V14.01,2013-01-28 05:04:00,
2013-01-27 21:08:00,42.4,36.4,30.13,NW,312,0.0,0.0,79,0.00,,---,0.00,VWS V14.01,2013-01-28 05:08:00,
2013-01-27 21:09:00,42.3,35.9,30.13,NW,311,0.0,0.0,78,0.00,,---,0.00,VWS V14.01,2013-01-28 05:09:00,
2013-01-27 21:10:00,42.3,36.3,30.13,NW,312,0.0,0.0,79,0.00,,---,0.00,VWS V14.01,2013-01-28 05:10:00,
2013-01-27 21:15:00,42.2,36.5,30.13,NW,311,0.0,0.0,80,0.00,,---,0.00,VWS V14.01,2013-01-28 05:15:00,
2013-01-27 21:20:00,42.2,36.2,30.13,NW,311,0.0,0.0,79,0.00,,---,0.00,VWS V14.01,2013-01-28 05:20:00,
2013-01-27 21:26:00,42.1,36.1,30.13,NW,311,0.0,0.0,79,0.00,,---,0.00,VWS V14.01,2013-01-28 05:26:00,
2013-01-27 21:31:00,42.0,36.0,30.13,NW,312,0.0,0.0,79,0.00,,---,0.00,VWS V14.01,2013-01-28 05:31:00,
2013-01-27 21:37:00,42.0,36.3,30.13,NW,311,0.0,0.0,80,0.00,,---,0.00,VWS V14.01,2013-01-28 05:37:00,
2013-01-27 21:43:00,41.9,36.5,30.13,NW,311,0.0,0.0,81,0.00,,---,0.00,VWS V14.01,2013-01-28 05:43:00,
2013-01-27 21:48:00,41.8,36.4,30.13,NW,311,0.0,0.0,81,0.00,,---,0.00,VWS V14.01,2013-01-28 05:48:00,
2013-01-27 21:53:00,41.8,36.4,30.14,NW,311,0.0,0.0,81,0.00,,---,0.00,VWS V14.01,2013-01-28 05:53:00,
2013-01-27 21:59:00,41.8,36.7,30.14,NW,311,0.0,0.0,82,0.00,,---,0.00,VWS V14.01,2013-01-28 05:59:00,
2013-01-27 22:05:00,41.8,37.0,30.14,NW,311,0.0,0.0,83,0.00,,---,0.00,VWS V14.01,2013-01-28 06:05:00,
2013-01-27 22:11:00,41.9,36.8,30.14,NW,311,0.0,0.0,82,0.00,,---,0.00,VWS V14.01,2013-01-28 06:11:00,
2013-01-27 22:16:00,42.0,37.2,30.14,NW,311,0.0,0.0,83,0.00,,---,0.00,VWS V14.01,2013-01-28 06:16:00,
2013-01-27 22:21:00,42.1,37.0,30.14,NW,311,0.0,0.0,82,0.00,,---,0.00,VWS V14.01,2013-01-28 06:21:00,
2013-01-27 22:27:00,42.2,37.4,30.14,NW,312,0.0,0.0,83,0.00,,---,0.00,VWS V14.01,2013-01-28 06:27:00,
2013-01-27 22:32:00,42.2,37.1,30.14,NW,312,0.0,0.0,82,0.00,,---,0.00,VWS V14.01,2013-01-28 06:32:00,
2013-01-27 22:38:00,42.2,37.1,30.14,NW,311,0.0,0.0,82,0.00,,---,0.00,VWS V14.01,2013-01-28 06:38:00,
2013-01-27 22:43:00,42.2,37.1,30.14,NW,312,0.0,0.0,82,0.00,,---,0.00,VWS V14.01,2013-01-28 06:43:00,
2013-01-27 22:48:00,42.2,37.4,30.14,NW,311,0.0,0.0,83,0.00,,---,0.00,VWS V14.01,2013-01-28 06:48:00,
2013-01-27 22:54:00,42.1,37.0,30.14,NW,311,0.0,0.0,82,0.00,,---,0.00,VWS V14.01,2013-01-28 06:54:00,
2013-01-27 22:59:00,42.1,37.3,30.14,NW,311,0.0,0.0,83,0.00,,---,0.00,VWS V14.01,2013-01-28 06:59:00,
2013-01-27 23:04:00,42.1,37.3,30.14,NW,311,0.0,0.0,83,0.00,,---,0.00,VWS V14.01,2013-01-28 07:04:00,
2013-01-27 23:10:00,42.1,37.3,30.14,NW,311,0.0,0.0,83,0.00,,---,0.00,VWS V14.01,2013-01-28 07:10:00,
2013-01-27 23:15:00,42.0,36.9,30.15,NW,311,0.0,0.0,82,0.00,,---,0.00,VWS V14.01,2013-01-28 07:15:00,
2013-01-27 23:21:00,41.9,36.8,30.15,NW,312,0.0,0.0,82,0.00,,---,0.00,VWS V14.01,2013-01-28 07:21:00,
2013-01-27 23:26:00,41.8,36.7,30.15,NW,312,0.0,0.0,82,0.00,,---,0.00,VWS V14.01,2013-01-28 07:26:00,
2013-01-27 23:32:00,41.7,36.9,30.15,NW,311,0.0,0.0,83,0.00,,---,0.00,VWS V14.01,2013-01-28 07:32:00,
2013-01-27 23:37:00,41.5,36.7,30.16,NW,311,0.0,0.0,83,0.00,,---,0.00,VWS V14.01,2013-01-28 07:37:00,
2013-01-27 23:42:00,41.3,36.5,30.16,NW,311,0.0,0.0,83,0.00,,---,0.00,VWS V14.01,2013-01-28 07:42:00,
2013-01-27 23:48:00,41.1,36.6,30.16,NW,312,0.0,0.0,84,0.00,,---,0.00,VWS V14.01,2013-01-28 07:48:00,
2013-01-27 23:53:00,40.9,36.1,30.16,NW,311,0.0,0.0,83,0.00,,---,0.00,VWS V14.01,2013-01-28 07:53:00,
2013-01-27 23:58:00,40.7,36.2,30.16,NW,311,0.0,0.0,84,0.00,,---,0.00,VWS V14.01,2013-01-28 07:58:00,